Highland, MI (48357)

8:47 PM EST on February 12, 2016 (GMT -0500)
Dunham Lake | | Change Station
CLOSE
Current Station
Personal Weather Station
Location: Highland, MI
Elevation: 997 ft
Nearby Weather Stations

Elev 997 ft 42.65 °N, 83.68 °W | Updated 17 seconds ago

Overcast
Overcast
10.1 °F
Feels Like 10 °F
N
0.0
Wind Variable Wind from North
Gusts 0.0 mph

Today
High -- | Low -- °F
--% Chance of Precip.
Yesterday
High -- | Low -- °F
Precip. -- in
Pressure 30.06 in
Visibility 4.0 miles
Clouds Scattered Clouds 2900 ft
Overcast 6000 ft
Windchill 10 °F
Dew Point 0 °F
Humidity 64%
Rainfall 0.00 in
Snow Depth Not available.
7:36 AM 6:01 PM
Waxing Crescent, 25% visible
SPECI KPTK 130106Z 33018G26KT 4SM -SN SCT029 OVC060 M11/M16 A3006 RMK AO2 PK WND 32026/0103 P0000 T11111161
Pressure 30.06 in
Visibility 4.0 miles
Clouds Scattered Clouds 2900 ft
Overcast 6000 ft
Windchill 10 °F
Dew Point 0 °F
Humidity 64%
Rainfall 0.00 in
Snow Depth Not available.
7:36 AM 6:01 PM
Waxing Crescent, 25% visible
SPECI KPTK 130106Z 33018G26KT 4SM -SN SCT029 OVC060 M11/M16 A3006 RMK AO2 PK WND 32026/0103 P0000 T11111161

10-Day Weather Forecast

Almanac

Astronomy

Feb. 12, 2016 Rise Set
Actual Time
Civil Twilight
Nautical Twilight
Astronomical Twilight
Moon
Length of Visible Light
Length of Day
Tomorrow will be .
, % of the Moon is Illuminated

Today's Extremes

State Highs State Lows

Community

WunderPhotos

Upload Photos

1,892,459 photos uploaded!

WunderBlog® & News

Nearby

Air Quality

  Air Quality AQ Index Pollutant
Not available.

Snow Depth

Station Depth Elevation

Earthquake Activity

City Distance Mag. Time & Date
Minimum magnitude displayed is 2.5.

Coastal Water Temperatures

Place Temperature

Stations

Nearby Weather Stations

Station Location Temp. Windchill Dew Point Humidity Wind Precip. Elev Updated Type
                   

Watches & Warnings

There are currently no watches in effect.